New Smyrna, Florida
Current Conditions -  °F | °C
As of 10:53 PM on Saturday 25 Oct 2014 (Local Time) from KDAB Reporting Station
Clear Clear  
Wind Chill: 61°   Ceiling: Unl
Heat Index: 61°   Visibility: 10mi
Dew Point: 55°   Wind: 0mph
Humidity: 81%   Direction: NA
Pressure: 30.02"   Gusts: NA
Location:  28.9963°N, 80.8761°W
Report Text: KDAB 260253Z 00000KT 10SM CLR 16/13 A3002 RMK AO2 SLP163 T01610128 51012
Loading
Personal Weather Stations






























Interactive Weather Map
Tropical Storm Tracking
New forecast layout! Learn more

10-Day Weather Forecast

Advertisements
Track Severe Weather on mobile